Time;durP1;ratioP1;P1;durP2;ratioP2;P2;SDS_P1;SDS_P2;PMS_P1;PMS_P2;Temp;Humidity;BMP_temperature;BMP_pressure;BME280_temperature;BME280_humidity;BME280_pressure;Samples;Min_cycle;Max_cycle;Signal;HPM_P1;HPM_P2
2021/08/13 00:00:45;;;;;;;21.23;12.90;;;20.70;99.90;;;;;;5073006;28;20678;-84
2021/08/13 00:03:12;;;;;;;19.00;11.33;;;20.70;99.90;;;;;;5091768;28;20414;-83
2021/08/13 00:05:38;;;;;;;19.07;11.87;;;20.70;99.90;;;;;;5096444;28;20715;-84
2021/08/13 00:08:04;;;;;;;20.57;12.37;;;20.70;99.90;;;;;;5093019;28;20624;-83
2021/08/13 00:10:30;;;;;;;20.33;12.60;;;20.70;99.90;;;;;;5079460;28;20180;-83
2021/08/13 00:12:58;;;;;;;19.13;12.77;;;20.80;99.90;;;;;;5091328;28;20663;-82
2021/08/13 00:15:25;;;;;;;24.10;14.97;;;20.80;99.90;;;;;;5086971;28;20198;-83
2021/08/13 00:17:51;;;;;;;23.13;14.20;;;20.90;99.90;;;;;;5085568;28;20192;-84
2021/08/13 00:20:20;;;;;;;25.03;17.80;;;21.00;99.90;;;;;;5076419;28;20637;-83
2021/08/13 00:22:54;;;;;;;31.83;21.20;;;21.00;99.90;;;;;;5075306;28;20294;-83
2021/08/13 00:25:20;;;;;;;31.37;21.40;;;21.00;99.90;;;;;;5069700;28;20184;-83
2021/08/13 00:27:46;;;;;;;34.83;22.23;;;21.10;99.90;;;;;;5076258;28;20663;-83
2021/08/13 00:30:13;;;;;;;33.83;20.87;;;21.00;99.90;;;;;;5096872;28;20188;-83
2021/08/13 00:32:40;;;;;;;34.00;22.63;;;20.90;99.90;;;;;;5076189;28;20170;-83
2021/08/13 00:35:06;;;;;;;32.80;21.90;;;20.90;99.90;;;;;;5084064;28;20172;-82
2021/08/13 00:37:32;;;;;;;34.47;22.60;;;20.70;99.90;;;;;;5071536;28;20190;-83
2021/08/13 00:39:58;;;;;;;39.43;26.53;;;20.70;99.90;;;;;;5084450;28;20274;-83
2021/08/13 00:42:25;;;;;;;38.70;24.40;;;20.70;99.90;;;;;;5074170;28;20395;-83
2021/08/13 00:44:51;;;;;;;35.80;22.33;;;20.80;99.90;;;;;;5075018;28;20568;-83
2021/08/13 00:47:20;;;;;;;30.40;21.00;;;20.70;99.90;;;;;;5094492;28;20550;-83
2021/08/13 00:50:11;;;;;;;34.83;21.70;;;20.60;99.90;;;;;;5091888;28;20243;-83
2021/08/13 00:52:49;;;;;;;32.27;20.03;;;20.60;99.90;;;;;;5093536;28;20186;-84
2021/08/13 00:55:17;;;;;;;28.23;19.33;;;20.70;99.90;;;;;;5077017;28;20712;-84
2021/08/13 00:57:57;;;;;;;36.13;23.40;;;20.70;99.90;;;;;;5080908;28;20187;-83
2021/08/13 01:00:35;;;;;;;31.50;21.97;;;20.60;99.90;;;;;;5094952;28;20187;-83
2021/08/13 01:03:03;;;;;;;36.50;22.90;;;20.60;99.90;;;;;;5109197;28;20263;-83
2021/08/13 01:05:29;;;;;;;32.17;20.73;;;20.60;99.90;;;;;;5092112;28;20170;-83
2021/08/13 01:07:56;;;;;;;31.57;20.20;;;20.70;99.90;;;;;;5078954;28;20177;-84
2021/08/13 01:10:27;;;;;;;29.97;20.80;;;20.70;99.90;;;;;;5082196;28;20263;-83
2021/08/13 01:13:01;;;;;;;33.47;20.30;;;20.70;99.90;;;;;;5080281;28;20193;-83
2021/08/13 01:15:32;;;;;;;29.93;21.50;;;20.60;99.90;;;;;;5075236;28;20183;-83
2021/08/13 01:17:59;;;;;;;32.63;21.87;;;20.70;99.90;;;;;;5079781;28;20176;-83
2021/08/13 01:20:44;;;;;;;39.00;24.37;;;20.70;99.90;;;;;;5081731;28;20218;-83
2021/08/13 01:23:19;;;;;;;35.47;24.23;;;20.70;99.90;;;;;;5093648;28;20227;-83
2021/08/13 01:25:52;;;;;;;35.77;23.57;;;20.70;99.90;;;;;;5088115;28;20189;-82
2021/08/13 01:28:28;;;;;;;39.13;25.93;;;20.70;99.90;;;;;;5080327;28;20258;-83
2021/08/13 01:30:54;;;;;;;39.53;25.20;;;20.80;99.90;;;;;;5080150;28;20229;-83
2021/08/13 01:33:22;;;;;;;37.70;25.07;;;20.80;99.90;;;;;;5094861;28;20188;-83
2021/08/13 01:35:51;;;;;;;38.50;24.80;;;20.80;99.90;;;;;;5074907;28;20240;-83
2021/08/13 01:38:27;;;;;;;33.97;23.27;;;20.70;99.90;;;;;;5092534;28;20233;-83
2021/08/13 01:41:01;;;;;;;37.60;24.07;;;20.70;99.90;;;;;;5080324;28;20203;-83
2021/08/13 01:43:33;;;;;;;34.80;22.30;;;20.70;99.90;;;;;;5075410;28;20211;-83
2021/08/13 01:46:00;;;;;;;31.10;21.53;;;20.70;99.90;;;;;;5077457;28;20264;-83
2021/08/13 01:48:28;;;;;;;33.67;21.73;;;20.60;99.90;;;;;;5096538;28;20176;-83
2021/08/13 01:50:55;;;;;;;32.90;21.43;;;20.60;99.90;;;;;;5077463;28;20200;-83
2021/08/13 01:53:23;;;;;;;34.43;21.20;;;20.60;99.90;;;;;;5078661;28;20184;-83
2021/08/13 01:55:51;;;;;;;32.53;21.87;;;20.50;99.90;;;;;;5092683;28;20192;-82
2021/08/13 01:58:21;;;;;;;33.60;21.93;;;20.50;99.90;;;;;;5095824;28;20668;-83
2021/08/13 02:00:53;;;;;;;35.23;22.17;;;20.50;99.90;;;;;;5077753;28;20191;-83
2021/08/13 02:03:20;;;;;;;32.90;21.57;;;20.40;99.90;;;;;;5080414;28;20199;-83
2021/08/13 02:05:48;;;;;;;32.27;20.50;;;20.40;99.90;;;;;;5077253;28;20722;-83
2021/08/13 02:08:15;;;;;;;31.50;21.80;;;20.30;99.90;;;;;;5096541;28;20205;-83
2021/08/13 02:10:46;;;;;;;35.03;21.77;;;20.40;99.90;;;;;;5080085;28;20715;-83
2021/08/13 02:13:14;;;;;;;30.87;20.50;;;20.40;99.90;;;;;;5090583;28;20230;-83
2021/08/13 02:15:53;;;;;;;34.13;21.37;;;20.40;99.90;;;;;;5078311;28;20267;-83
2021/08/13 02:18:24;;;;;;;29.40;19.87;;;20.40;99.90;;;;;;5099631;28;20176;-83
2021/08/13 02:20:55;;;;;;;30.30;19.60;;;20.30;99.90;;;;;;5106106;28;20208;-83
2021/08/13 02:23:21;;;;;;;28.30;19.17;;;20.30;99.90;;;;;;5097717;28;20237;-83
2021/08/13 02:25:56;;;;;;;35.13;21.07;;;20.20;99.90;;;;;;5093449;28;20177;-83
2021/08/13 02:28:23;;;;;;;31.57;21.30;;;20.20;99.90;;;;;;5090327;28;20592;-83
2021/08/13 02:30:50;;;;;;;31.27;20.33;;;20.20;99.90;;;;;;5078358;28;20179;-83
2021/08/13 02:33:16;;;;;;;36.80;22.17;;;20.10;99.90;;;;;;5091578;28;20188;-83
2021/08/13 02:35:45;;;;;;;29.20;20.83;;;20.10;99.90;;;;;;5095748;28;20865;-83
2021/08/13 02:38:21;;;;;;;32.83;20.27;;;20.10;99.90;;;;;;5092434;28;20178;-83
2021/08/13 02:41:04;;;;;;;29.87;20.30;;;20.10;99.90;;;;;;5094661;28;20182;-83
2021/08/13 02:43:37;;;;;;;32.13;21.73;;;20.00;99.90;;;;;;5091380;28;20206;-84
2021/08/13 02:46:06;;;;;;;32.77;22.77;;;20.00;99.90;;;;;;5076127;28;20859;-82
2021/08/13 02:48:38;;;;;;;32.90;22.53;;;20.00;99.90;;;;;;5074293;28;20188;-83
2021/08/13 02:51:06;;;;;;;35.03;22.73;;;20.00;99.90;;;;;;5072840;28;20184;-83
2021/08/13 02:53:38;;;;;;;33.03;22.33;;;20.00;99.90;;;;;;5095388;28;20176;-83
2021/08/13 02:56:07;;;;;;;33.03;23.23;;;20.00;99.90;;;;;;5092117;28;20317;-83
2021/08/13 02:58:52;;;;;;;34.90;22.43;;;20.10;99.90;;;;;;5084290;28;20678;-83
2021/08/13 03:01:23;;;;;;;37.50;23.40;;;20.10;99.90;;;;;;5091762;28;20188;-83
2021/08/13 03:03:52;;;;;;;39.57;24.90;;;20.10;99.90;;;;;;5073062;28;20212;-83
2021/08/13 03:06:23;;;;;;;36.23;23.83;;;20.00;99.90;;;;;;5078508;28;20176;-82
2021/08/13 03:08:50;;;;;;;38.20;23.10;;;20.00;99.90;;;;;;5093517;28;20175;-83
2021/08/13 03:11:17;;;;;;;35.37;22.17;;;20.00;99.90;;;;;;5072085;28;20201;-83
2021/08/13 03:13:43;;;;;;;36.50;21.30;;;20.00;99.90;;;;;;5075653;28;20184;-83
2021/08/13 03:16:11;;;;;;;35.80;23.03;;;20.00;99.90;;;;;;5109610;28;20188;-83
2021/08/13 03:18:41;;;;;;;35.77;22.70;;;20.00;99.90;;;;;;5092201;28;20181;-83
2021/08/13 03:21:09;;;;;;;36.30;23.17;;;20.00;99.90;;;;;;5069272;28;20314;-83
2021/08/13 03:23:37;;;;;;;38.87;24.17;;;20.00;99.90;;;;;;5093659;28;20272;-84
2021/08/13 03:26:04;;;;;;;37.07;23.57;;;19.90;99.90;;;;;;5091168;28;20256;-83
2021/08/13 03:28:30;;;;;;;36.37;23.30;;;19.90;99.90;;;;;;5071252;28;20180;-84
2021/08/13 03:30:56;;;;;;;38.73;25.37;;;19.90;99.90;;;;;;5093491;28;20172;-83
2021/08/13 03:33:26;;;;;;;40.50;25.97;;;19.90;99.90;;;;;;5081188;28;20268;-82
2021/08/13 03:35:55;;;;;;;41.13;25.73;;;19.80;99.90;;;;;;5093271;28;20178;-82
2021/08/13 03:38:22;;;;;;;40.03;26.40;;;19.80;99.90;;;;;;5096847;28;20176;-82
2021/08/13 03:40:48;;;;;;;47.37;27.53;;;19.80;99.90;;;;;;5075057;28;20179;-83
2021/08/13 03:43:14;;;;;;;42.90;26.83;;;19.70;99.90;;;;;;5096855;28;20179;-83
2021/08/13 03:45:40;;;;;;;45.73;27.47;;;19.70;99.90;;;;;;5080766;28;20207;-82
2021/08/13 03:48:07;;;;;;;39.03;25.33;;;19.60;99.90;;;;;;5077179;28;20181;-82
2021/08/13 03:50:34;;;;;;;40.70;25.17;;;19.50;99.90;;;;;;5078578;28;20174;-82
2021/08/13 03:53:01;;;;;;;41.90;25.97;;;19.50;99.90;;;;;;5076492;28;20185;-83
2021/08/13 03:55:27;;;;;;;41.00;25.70;;;19.40;99.90;;;;;;5071689;28;20186;-83
2021/08/13 03:57:53;;;;;;;44.50;26.20;;;19.40;99.90;;;;;;5106549;28;20183;-82
2021/08/13 04:00:19;;;;;;;39.20;25.40;;;19.30;99.90;;;;;;5075657;28;20177;-83
2021/08/13 04:02:47;;;;;;;51.23;26.23;;;19.30;99.90;;;;;;5093423;28;20167;-83
2021/08/13 04:05:18;;;;;;;39.83;25.30;;;19.30;99.90;;;;;;5088519;28;20201;-83
2021/08/13 04:07:45;;;;;;;38.03;24.30;;;19.30;99.90;;;;;;5091946;28;20177;-83
2021/08/13 04:10:11;;;;;;;38.97;24.40;;;19.20;99.90;;;;;;5085933;28;20187;-83
2021/08/13 04:12:37;;;;;;;41.83;24.23;;;19.20;99.90;;;;;;5092755;28;20557;-83
2021/08/13 04:15:16;;;;;;;39.93;24.13;;;19.10;99.90;;;;;;5074901;28;20241;-83
2021/08/13 04:17:42;;;;;;;40.40;23.93;;;19.10;99.90;;;;;;5076507;28;20175;-83
2021/08/13 04:20:09;;;;;;;38.13;24.30;;;19.10;99.90;;;;;;5072144;28;20178;-82
2021/08/13 04:22:38;;;;;;;38.13;23.03;;;19.10;99.90;;;;;;5073583;28;20279;-83
2021/08/13 04:25:05;;;;;;;34.97;22.73;;;19.00;99.90;;;;;;5079737;28;20244;-83
2021/08/13 04:27:31;;;;;;;36.60;23.37;;;19.00;99.90;;;;;;5086736;28;20271;-83
2021/08/13 04:29:56;;;;;;;34.80;22.23;;;19.00;99.90;;;;;;5078146;28;20267;-83
2021/08/13 04:32:22;;;;;;;40.80;24.20;;;18.90;99.90;;;;;;5086566;28;20186;-82
2021/08/13 04:34:48;;;;;;;34.63;22.57;;;19.00;99.90;;;;;;5075017;28;20669;-84
2021/08/13 04:37:17;;;;;;;37.80;22.17;;;19.00;99.90;;;;;;5079899;28;20179;-83
2021/08/13 04:39:43;;;;;;;38.27;22.77;;;19.10;99.90;;;;;;5078438;28;20731;-82
2021/08/13 04:42:08;;;;;;;36.70;23.17;;;19.10;99.90;;;;;;5079914;28;20208;-83
2021/08/13 04:44:34;;;;;;;39.80;22.97;;;19.20;99.90;;;;;;5080412;28;20245;-82
2021/08/13 04:47:00;;;;;;;37.50;22.83;;;19.30;99.90;;;;;;5078519;28;20178;-83
2021/08/13 04:49:27;;;;;;;35.23;21.07;;;19.30;99.90;;;;;;5075214;28;20175;-83
2021/08/13 04:51:53;;;;;;;34.77;21.40;;;19.40;99.90;;;;;;5079461;28;20647;-83
2021/08/13 04:54:19;;;;;;;32.97;19.33;;;19.50;99.90;;;;;;5081320;28;20272;-83
2021/08/13 04:56:45;;;;;;;27.90;18.77;;;19.50;99.90;;;;;;5083095;28;20182;-83
2021/08/13 04:59:11;;;;;;;28.30;16.10;;;19.50;99.90;;;;;;5094540;28;20189;-83
2021/08/13 05:01:47;;;;;;;21.97;14.27;;;19.50;99.90;;;;;;5085866;28;20550;-83
2021/08/13 05:04:13;;;;;;;23.97;14.57;;;19.60;99.90;;;;;;5091207;28;20234;-83
2021/08/13 05:06:39;;;;;;;23.23;14.13;;;19.70;99.90;;;;;;5081068;28;20167;-82
2021/08/13 05:09:05;;;;;;;25.77;14.50;;;20.10;99.90;;;;;;5094434;28;20662;-83
2021/08/13 05:11:31;;;;;;;19.43;12.77;;;20.70;99.90;;;;;;5079972;28;20246;-83
2021/08/13 05:13:56;;;;;;;21.43;12.57;;;21.00;99.90;;;;;;5081803;28;20228;-82
2021/08/13 05:16:22;;;;;;;26.37;11.90;;;21.10;99.90;;;;;;5079435;28;20199;-82
2021/08/13 05:18:48;;;;;;;20.07;11.33;;;21.10;99.90;;;;;;5087010;28;20180;-83
2021/08/13 05:21:14;;;;;;;20.47;10.87;;;20.90;99.90;;;;;;5093978;28;20257;-83
2021/08/13 05:23:40;;;;;;;16.67;9.87;;;20.80;99.90;;;;;;5084611;28;20677;-83
2021/08/13 05:26:06;;;;;;;19.27;10.60;;;20.70;99.90;;;;;;5079974;28;20551;-83
2021/08/13 05:28:33;;;;;;;18.53;9.67;;;20.60;99.90;;;;;;5092626;28;20168;-83
2021/08/13 05:31:00;;;;;;;16.37;10.17;;;20.50;99.90;;;;;;5073965;28;20207;-83
2021/08/13 05:33:28;;;;;;;16.07;9.93;;;20.50;99.90;;;;;;5079240;28;20183;-82
2021/08/13 05:35:54;;;;;;;17.03;10.03;;;20.50;99.90;;;;;;5090823;28;20233;-81
2021/08/13 05:38:19;;;;;;;17.07;9.40;;;20.50;99.90;;;;;;5077489;28;20188;-83
2021/08/13 05:40:46;;;;;;;17.60;9.20;;;20.50;99.90;;;;;;5093681;28;20204;-83
2021/08/13 05:43:12;;;;;;;13.33;8.73;;;20.50;99.90;;;;;;5093079;28;20206;-82
2021/08/13 05:45:39;;;;;;;17.17;8.63;;;20.60;99.90;;;;;;5085237;28;20173;-83
2021/08/13 05:48:06;;;;;;;15.50;9.17;;;20.60;99.90;;;;;;5083634;28;20540;-82
2021/08/13 05:50:32;;;;;;;17.63;9.00;;;20.70;99.90;;;;;;5075629;28;20271;-83
2021/08/13 05:52:58;;;;;;;15.20;8.50;;;20.80;99.90;;;;;;5094586;28;20179;-82
2021/08/13 05:55:27;;;;;;;14.10;7.97;;;20.90;99.90;;;;;;5095606;28;20192;-83
2021/08/13 05:57:55;;;;;;;14.47;8.13;;;20.80;99.90;;;;;;5079574;28;20192;-83
2021/08/13 06:00:21;;;;;;;17.33;8.33;;;20.90;99.90;;;;;;5079358;28;20635;-83
2021/08/13 06:02:56;;;;;;;14.13;8.33;;;21.00;99.90;;;;;;5073115;28;20185;-83
2021/08/13 06:05:22;;;;;;;13.63;7.83;;;21.20;99.90;;;;;;5095113;28;20223;-82
2021/08/13 06:07:50;;;;;;;14.60;7.70;;;21.30;99.90;;;;;;5090615;28;20184;-83
2021/08/13 06:10:18;;;;;;;15.93;7.80;;;21.40;99.90;;;;;;5094304;28;20258;-83
2021/08/13 06:12:45;;;;;;;12.70;7.17;;;21.60;99.90;;;;;;5075754;28;20712;-83
2021/08/13 06:15:13;;;;;;;13.40;8.33;;;21.60;99.90;;;;;;5074541;28;20216;-83
2021/08/13 06:17:42;;;;;;;12.60;7.57;;;21.60;99.90;;;;;;5074922;28;20182;-83
2021/08/13 06:20:13;;;;;;;13.00;7.27;;;21.70;99.90;;;;;;5094426;28;20192;-82
2021/08/13 06:22:40;;;;;;;14.13;7.60;;;22.00;99.90;;;;;;5088850;28;20225;-83
2021/08/13 06:25:07;;;;;;;15.27;6.90;;;22.70;99.90;;;;;;5077031;28;20270;-83
2021/08/13 06:27:33;;;;;;;15.83;7.47;;;23.50;99.90;;;;;;5095559;28;20198;-83
2021/08/13 06:30:00;;;;;;;11.90;6.73;;;24.10;99.90;;;;;;5077338;28;20250;-83
2021/08/13 06:32:25;;;;;;;13.20;7.03;;;25.10;99.90;;;;;;5077691;28;20819;-82
2021/08/13 06:34:51;;;;;;;13.30;7.13;;;25.70;99.90;;;;;;5090616;28;20178;-84
2021/08/13 06:37:17;;;;;;;12.07;6.80;;;25.60;99.90;;;;;;5074882;28;20181;-83
2021/08/13 06:39:43;;;;;;;12.63;6.93;;;25.40;99.90;;;;;;5092435;28;20210;-82
2021/08/13 06:42:11;;;;;;;13.57;6.47;;;24.60;99.90;;;;;;5079365;28;20178;-83
2021/08/13 06:44:47;;;;;;;11.70;5.93;;;24.70;99.90;;;;;;5079410;28;20202;-83
2021/08/13 06:47:15;;;;;;;9.93;5.30;;;25.20;99.90;;;;;;5074586;28;20211;-83
2021/08/13 06:49:41;;;;;;;10.18;5.95;;;25.10;99.90;;;;;;5071833;28;20175;-83
2021/08/13 06:52:10;;;;;;;10.60;6.00;;;25.30;99.90;;;;;;5077948;28;20194;-82
2021/08/13 06:54:38;;;;;;;10.65;5.90;;;24.90;99.90;;;;;;5092319;28;20214;-82
2021/08/13 06:57:04;;;;;;;9.63;5.40;;;24.60;99.90;;;;;;5086032;28;20179;-83
2021/08/13 06:59:31;;;;;;;12.20;5.75;;;24.70;99.90;;;;;;5075138;28;20179;-84
2021/08/13 07:01:57;;;;;;;10.50;5.57;;;25.10;99.90;;;;;;5074062;28;20185;-81
2021/08/13 07:04:23;;;;;;;10.57;5.75;;;26.20;99.90;;;;;;5081546;28;20202;-83
2021/08/13 07:06:49;;;;;;;9.48;5.35;;;26.60;99.90;;;;;;5076738;28;20171;-83
2021/08/13 07:09:16;;;;;;;11.27;6.13;;;26.40;99.90;;;;;;5095801;28;20185;-83
2021/08/13 07:11:42;;;;;;;10.10;5.78;;;26.30;99.90;;;;;;5076307;28;20183;-83
2021/08/13 07:14:08;;;;;;;9.30;5.47;;;26.20;99.90;;;;;;5076856;28;20171;-81
2021/08/13 07:16:33;;;;;;;10.43;5.95;;;25.40;99.90;;;;;;5075162;28;20232;-83
2021/08/13 07:18:59;;;;;;;11.90;5.80;;;26.00;99.90;;;;;;5071205;28;20294;-83
2021/08/13 07:21:25;;;;;;;13.48;5.88;;;27.60;99.90;;;;;;5079077;28;20305;-83
2021/08/13 07:23:53;;;;;;;9.55;5.63;;;27.40;99.90;;;;;;5090846;28;20210;-83
2021/08/13 07:26:19;;;;;;;10.23;5.78;;;28.70;99.90;;;;;;5079694;28;20175;-84
2021/08/13 07:28:45;;;;;;;13.25;5.80;;;29.60;99.90;;;;;;5078760;28;20213;-84
2021/08/13 07:31:12;;;;;;;9.55;5.32;;;30.80;99.90;;;;;;5071664;28;20183;-83
2021/08/13 07:33:45;;;;;;;9.35;5.00;;;31.00;99.90;;;;;;5080001;28;20202;-83
2021/08/13 07:36:11;;;;;;;9.90;5.28;;;32.50;99.90;;;;;;5089749;28;20235;-83
2021/08/13 07:38:40;;;;;;;8.65;4.90;;;33.50;99.90;;;;;;5067006;28;20182;-83
2021/08/13 07:41:10;;;;;;;9.75;5.03;;;33.80;98.80;;;;;;5074968;28;20273;-84
2021/08/13 07:43:36;;;;;;;10.73;4.97;;;35.10;94.70;;;;;;5092819;28;20202;-84
2021/08/13 07:46:05;;;;;;;8.68;4.25;;;33.80;94.70;;;;;;5074871;28;20260;-84
2021/08/13 07:48:31;;;;;;;9.15;4.88;;;31.90;95.90;;;;;;5104223;27;20194;-84
2021/08/13 07:50:58;;;;;;;9.95;4.18;;;31.50;96.80;;;;;;5070933;28;20217;-84
2021/08/13 07:53:24;;;;;;;8.63;4.10;;;31.60;97.20;;;;;;5073592;28;20238;-84
2021/08/13 07:55:50;;;;;;;8.70;4.13;;;31.70;96.60;;;;;;5076996;28;20205;-83
2021/08/13 07:58:17;;;;;;;7.85;4.15;;;32.10;95.90;;;;;;5097238;28;20642;-83
2021/08/13 08:00:43;;;;;;;8.68;4.05;;;30.30;97.10;;;;;;5074701;28;20594;-84
2021/08/13 08:03:09;;;;;;;8.23;3.70;;;28.70;99.90;;;;;;5093551;28;20269;-83
2021/08/13 08:05:35;;;;;;;5.95;3.53;;;28.70;99.90;;;;;;5090934;28;20265;-84
2021/08/13 08:08:00;;;;;;;7.63;3.55;;;28.70;99.90;;;;;;5084761;28;20182;-83
2021/08/13 08:10:26;;;;;;;8.75;3.25;;;28.40;99.90;;;;;;5084878;28;20221;-84
2021/08/13 08:12:52;;;;;;;7.82;3.30;;;28.60;99.90;;;;;;5094801;28;20227;-84
2021/08/13 08:15:17;;;;;;;6.47;3.38;;;29.60;99.90;;;;;;5092863;28;20187;-84
2021/08/13 08:17:43;;;;;;;7.22;2.97;;;29.50;99.90;;;;;;5092811;28;20199;-84
2021/08/13 08:20:09;;;;;;;9.55;3.38;;;29.70;99.90;;;;;;5091110;28;20190;-84
2021/08/13 08:22:35;;;;;;;7.18;3.50;;;29.50;99.90;;;;;;5088867;28;20246;-84
2021/08/13 08:25:02;;;;;;;8.02;3.53;;;27.30;99.90;;;;;;5089879;28;20224;-82
2021/08/13 08:27:28;;;;;;;6.75;3.40;;;27.00;99.90;;;;;;5089529;28;20185;-83
2021/08/13 08:29:54;;;;;;;7.32;3.17;;;27.90;99.90;;;;;;5087847;28;20597;-84
2021/08/13 08:32:19;;;;;;;8.40;3.17;;;27.40;99.90;;;;;;5087489;28;20546;-84
2021/08/13 08:34:45;;;;;;;7.72;2.60;;;28.10;99.90;;;;;;5087227;28;20277;-84
2021/08/13 08:37:12;;;;;;;8.35;3.15;;;29.70;99.90;;;;;;5081735;28;20190;-83
2021/08/13 08:39:38;;;;;;;8.80;2.75;;;31.80;98.20;;;;;;5087567;28;20195;-83
2021/08/13 08:42:12;;;;;;;6.43;2.75;;;32.50;96.20;;;;;;5083453;28;20190;-84
2021/08/13 08:44:37;;;;;;;6.80;2.75;;;33.30;93.90;;;;;;5087251;28;20573;-84
2021/08/13 08:47:03;;;;;;;6.28;2.45;;;34.20;92.50;;;;;;5085116;28;20188;-83
2021/08/13 08:49:31;;;;;;;7.13;2.60;;;34.40;89.00;;;;;;5090332;28;20258;-84
2021/08/13 08:51:58;;;;;;;7.40;2.53;;;33.90;90.40;;;;;;5082510;28;20190;-84
2021/08/13 08:54:26;;;;;;;5.22;2.22;;;33.80;88.90;;;;;;5084417;28;20171;-83
2021/08/13 08:56:53;;;;;;;7.45;2.38;;;32.40;89.70;;;;;;5091481;28;20219;-83
2021/08/13 08:59:22;;;;;;;5.55;2.30;;;30.80;92.20;;;;;;5082721;28;20184;-84
2021/08/13 09:01:48;;;;;;;5.72;2.45;;;30.30;93.50;;;;;;5084565;28;20738;-84
2021/08/13 09:04:14;;;;;;;7.68;2.10;;;30.20;93.10;;;;;;5087654;28;20294;-84
2021/08/13 09:06:41;;;;;;;4.75;2.22;;;29.00;93.60;;;;;;5082011;28;20183;-84
2021/08/13 09:09:08;;;;;;;6.10;2.38;;;30.80;93.50;;;;;;5084971;28;20180;-83
2021/08/13 09:11:36;;;;;;;4.80;2.35;;;34.00;91.80;;;;;;5088784;28;20171;-83
2021/08/13 09:14:04;;;;;;;4.32;2.10;;;35.90;87.10;;;;;;5084396;28;20268;-84
2021/08/13 09:16:30;;;;;;;5.18;2.28;;;38.20;80.50;;;;;;5081769;28;20187;-83
2021/08/13 09:19:01;;;;;;;5.65;2.10;;;39.00;75.20;;;;;;5087457;28;20205;-84
2021/08/13 09:21:28;;;;;;;5.22;2.22;;;38.90;71.70;;;;;;5086063;28;20207;-84
2021/08/13 09:24:02;;;;;;;4.78;2.20;;;39.10;70.10;;;;;;5083341;28;20202;-83
2021/08/13 09:26:29;;;;;;;5.47;2.20;;;38.90;67.80;;;;;;5084614;28;20171;-84
2021/08/13 09:29:07;;;;;;;5.63;2.58;;;37.40;69.20;;;;;;5101853;28;20175;-83
2021/08/13 09:31:48;;;;;;;4.68;2.40;;;36.80;68.20;;;;;;5096511;28;20188;-84
2021/08/13 09:34:15;;;;;;;4.50;2.05;;;34.10;70.40;;;;;;5089373;28;20179;-84
2021/08/13 09:36:49;;;;;;;5.45;2.13;;;34.10;72.50;;;;;;5069580;28;20209;-84
2021/08/13 09:39:16;;;;;;;7.65;2.53;;;34.10;73.30;;;;;;5103133;28;20229;-85
2021/08/13 09:41:48;;;;;;;4.63;2.00;;;32.60;73.10;;;;;;5089973;28;20175;-84
2021/08/13 09:44:24;;;;;;;5.22;2.25;;;31.00;78.00;;;;;;5091423;28;20230;-84
2021/08/13 09:47:04;;;;;;;5.30;2.40;;;31.10;80.70;;;;;;5071474;28;20181;-84
2021/08/13 09:49:32;;;;;;;4.20;2.30;;;30.10;80.60;;;;;;5085754;28;20181;-84
2021/08/13 09:52:11;;;;;;;6.55;2.65;;;29.10;84.20;;;;;;5085133;28;20647;-84
2021/08/13 09:54:36;;;;;;;8.57;2.60;;;30.10;83.80;;;;;;5086127;28;20237;-82
2021/08/13 09:57:10;;;;;;;6.35;2.30;;;30.80;82.40;;;;;;5068996;28;20645;-83
2021/08/13 09:59:37;;;;;;;6.07;2.70;;;32.50;79.00;;;;;;5093007;28;20186;-83
2021/08/13 10:02:13;;;;;;;5.88;2.38;;;32.60;79.10;;;;;;5090101;28;20195;-83
2021/08/13 10:04:41;;;;;;;6.25;2.30;;;31.60;76.30;;;;;;5082844;28;20203;-84
2021/08/13 10:07:07;;;;;;;5.82;2.40;;;32.70;80.20;;;;;;5085926;28;20623;-82
2021/08/13 10:09:33;;;;;;;5.20;2.70;;;33.60;74.40;;;;;;5077577;28;20171;-84
2021/08/13 10:12:07;;;;;;;6.72;2.40;;;34.50;69.60;;;;;;5080075;28;20184;-83
2021/08/13 10:14:40;;;;;;;7.90;3.17;;;35.60;69.90;;;;;;5085047;28;20194;-83
2021/08/13 10:17:15;;;;;;;7.97;3.53;;;35.10;62.00;;;;;;5068172;28;20223;-83
2021/08/13 10:19:48;;;;;;;8.27;3.35;;;33.50;65.60;;;;;;5092302;28;20221;-83
2021/08/13 10:22:19;;;;;;;7.07;3.22;;;31.80;68.40;;;;;;5070265;28;20226;-84
2021/08/13 10:24:47;;;;;;;8.13;3.33;;;30.40;69.50;;;;;;5053036;28;20213;-84
2021/08/13 10:27:15;;;;;;;6.43;3.15;;;28.70;76.00;;;;;;5049456;28;20172;-84
2021/08/13 10:29:47;;;;;;;8.50;3.03;;;28.40;77.60;;;;;;5052396;28;20179;-84
2021/08/13 10:32:18;;;;;;;5.75;2.97;;;28.80;77.70;;;;;;5051546;28;20262;-84
2021/08/13 10:34:46;;;;;;;8.27;3.03;;;28.90;78.90;;;;;;5061991;28;20244;-84
2021/08/13 10:37:14;;;;;;;7.50;3.20;;;28.60;79.50;;;;;;5068733;28;20263;-84
2021/08/13 10:39:46;;;;;;;10.35;3.40;;;28.60;81.60;;;;;;5057013;28;20654;-83
2021/08/13 10:42:19;;;;;;;5.97;2.65;;;28.70;83.00;;;;;;5084791;28;20177;-83
2021/08/13 10:44:58;;;;;;;6.88;3.15;;;29.90;81.40;;;;;;5055094;28;20207;-87
2021/08/13 10:47:36;;;;;;;7.22;3.00;;;30.80;78.80;;;;;;5054325;28;20266;-86
2021/08/13 10:50:06;;;;;;;9.32;3.38;;;30.40;78.80;;;;;;5052660;28;20647;-86
2021/08/13 10:52:37;;;;;;;6.60;3.10;;;31.00;77.80;;;;;;5061183;28;20180;-85
2021/08/13 10:55:45;;;;;;;6.15;3.08;;;30.30;77.50;;;;;;5087010;28;20183;-86
2021/08/13 10:58:12;;;;;;;7.97;3.47;;;30.20;78.60;;;;;;5056245;28;20179;-85
2021/08/13 11:01:03;;;;;;;8.45;3.45;;;31.00;78.40;;;;;;5055104;28;20183;-87
2021/08/13 11:03:29;;;;;;;7.35;3.80;;;31.20;74.70;;;;;;5055714;28;20215;-86
2021/08/13 11:05:59;;;;;;;7.47;3.20;;;30.20;78.10;;;;;;5056276;28;20276;-86
2021/08/13 11:08:42;;;;;;;8.35;3.45;;;31.70;77.10;;;;;;5059501;28;20183;-86
2021/08/13 11:11:12;;;;;;;9.85;3.47;;;31.60;73.50;;;;;;5071126;28;20337;-85
2021/08/13 11:13:43;;;;;;;10.65;3.40;;;31.40;72.20;;;;;;5055685;28;20183;-86
2021/08/13 11:16:25;;;;;;;11.52;3.70;;;30.40;75.30;;;;;;5069394;28;20723;-85
2021/08/13 11:19:03;;;;;;;10.13;3.22;;;30.30;75.00;;;;;;5050356;28;20207;-87
2021/08/13 11:21:46;;;;;;;9.93;3.67;;;29.70;78.50;;;;;;5068802;28;20572;-86
2021/08/13 11:24:14;;;;;;;7.80;3.50;;;28.60;78.30;;;;;;5072594;28;20636;-87
2021/08/13 11:26:55;;;;;;;8.43;3.60;;;27.50;82.00;;;;;;5068331;28;20190;-87
2021/08/13 11:29:27;;;;;;;11.70;4.00;;;28.00;83.00;;;;;;5073649;28;20182;-86
2021/08/13 11:31:55;;;;;;;9.25;3.45;;;27.50;84.70;;;;;;5084834;28;20213;-84
2021/08/13 11:34:43;;;;;;;8.80;3.63;;;27.80;82.50;;;;;;5073910;28;20186;-85
2021/08/13 11:37:29;;;;;;;8.48;3.42;;;27.20;84.00;;;;;;5071219;28;20681;-86
2021/08/13 11:39:56;;;;;;;8.70;3.25;;;28.00;84.60;;;;;;5087677;28;20182;-87
2021/08/13 11:42:23;;;;;;;8.82;3.25;;;28.30;84.60;;;;;;5075969;28;20221;-87
2021/08/13 11:44:51;;;;;;;9.48;3.65;;;27.50;86.50;;;;;;5088325;28;20742;-87
2021/08/13 11:47:20;;;;;;;9.98;3.35;;;28.00;87.20;;;;;;5074285;28;20458;-87
2021/08/13 11:49:48;;;;;;;7.97;3.20;;;27.90;86.00;;;;;;5090788;28;20205;-86
2021/08/13 11:52:27;;;;;;;10.48;3.40;;;28.80;85.70;;;;;;5074431;28;20525;-86
2021/08/13 11:54:53;;;;;;;7.90;3.22;;;29.60;82.90;;;;;;5084585;28;20178;-86
2021/08/13 11:57:22;;;;;;;8.02;3.42;;;29.60;87.10;;;;;;5073721;28;20180;-86
2021/08/13 11:59:49;;;;;;;10.15;3.45;;;28.70;85.80;;;;;;5091029;28;20171;-86
2021/08/13 12:02:27;;;;;;;11.05;3.25;;;29.00;87.20;;;;;;5085046;28;20517;-86
2021/08/13 12:05:07;;;;;;;6.82;3.30;;;29.10;84.70;;;;;;5086753;28;20195;-86
2021/08/13 12:07:33;;;;;;;12.00;3.90;;;27.70;88.50;;;;;;5073086;28;20673;-86
2021/08/13 12:10:09;;;;;;;10.05;3.45;;;27.20;90.70;;;;;;5093635;28;20183;-86
2021/08/13 12:12:36;;;;;;;9.43;3.45;;;27.70;90.80;;;;;;5095153;28;20736;-84
2021/08/13 12:15:02;;;;;;;12.57;3.90;;;27.90;90.00;;;;;;5089096;28;20661;-86
2021/08/13 12:17:28;;;;;;;6.95;3.15;;;27.00;91.40;;;;;;5072831;28;20551;-84
2021/08/13 12:19:55;;;;;;;9.32;3.45;;;27.30;91.40;;;;;;5072838;28;20194;-86
2021/08/13 12:22:31;;;;;;;10.27;3.55;;;27.40;93.70;;;;;;5068897;28;20630;-86
2021/08/13 12:24:58;;;;;;;9.73;3.70;;;28.30;93.60;;;;;;5090220;28;20198;-87
2021/08/13 12:27:29;;;;;;;11.75;3.85;;;28.30;91.20;;;;;;5073130;28;20175;-86
2021/08/13 12:29:55;;;;;;;12.15;3.78;;;28.20;91.40;;;;;;5069420;28;20187;-86
2021/08/13 12:32:40;;;;;;;10.70;4.05;;;28.30;91.80;;;;;;5072131;28;20187;-85
2021/08/13 12:35:08;;;;;;;11.90;3.88;;;28.90;91.70;;;;;;5089977;28;20186;-86
2021/08/13 12:37:36;;;;;;;10.02;3.63;;;29.20;92.90;;;;;;5079105;28;20212;-86
2021/08/13 12:40:03;;;;;;;12.00;3.83;;;29.70;91.10;;;;;;5068748;28;20197;-86
2021/08/13 12:42:29;;;;;;;13.13;3.58;;;30.10;91.50;;;;;;5068850;28;20167;-86
2021/08/13 12:44:58;;;;;;;10.43;4.13;;;30.10;91.00;;;;;;5075338;28;20260;-87